Terminal Aerodrome Forecast
Issued by NWS

Home | Current Version | Previous Version | Text Only | Print | Product List | Glossary On
Versions: 1 2 3 4 5 6 7 8 9 10 11 12 13 14
000
FTUS44 KLIX 021100 RRA
TAFGPT
TAF
KGPT 021150Z 0212/0312 16004KT P6SM VCSH FEW015 SCT040
     FM021700 16008KT P6SM VCSH BKN040
      TEMPO 0219/0223 VRB15KT 2SM TSRA BKN020CB
     FM030100 16008KT P6SM VCSH BKN025
      TEMPO 0310/0312 VRB15G25KT 1/2SM TSRA FG BKN015CB OVC030=

USA.gov is the U.S. government's official web portal to all federal, state and local government web resources and services.